createdAt,value
2018-12-11T00:01:56.620Z,82.40
2018-12-11T00:04:27.512Z,82.70
2018-12-11T00:06:56.388Z,82.90
2018-12-11T00:09:25.285Z,82.60
2018-12-11T00:11:54.192Z,82.90
2018-12-11T00:14:23.085Z,83.60
2018-12-11T00:16:51.988Z,84.10
2018-12-11T00:19:20.912Z,84.60
2018-12-11T00:21:49.791Z,85.20
2018-12-11T00:24:18.736Z,85.40
2018-12-11T00:26:47.663Z,85.30
2018-12-11T00:29:16.564Z,85.90
2018-12-11T00:31:45.485Z,85.80
2018-12-11T00:34:14.421Z,86.50
2018-12-11T00:36:43.316Z,86.10
2018-12-11T00:39:12.248Z,86.10
2018-12-11T00:41:41.180Z,86.10
2018-12-11T00:44:10.213Z,86.10
2018-12-11T00:46:39.128Z,86.50
2018-12-11T00:49:08.023Z,87.00
2018-12-11T00:51:36.920Z,87.10
2018-12-11T00:54:05.918Z,87.40
2018-12-11T00:56:34.912Z,87.50
2018-12-11T00:59:03.816Z,87.60
2018-12-11T01:01:32.705Z,87.70
2018-12-11T01:04:01.583Z,88.10
2018-12-11T01:06:30.561Z,88.20
2018-12-11T01:08:59.452Z,89.00
2018-12-11T01:11:28.346Z,88.20
2018-12-11T01:13:57.243Z,88.60
2018-12-11T01:16:26.150Z,88.90
2018-12-11T01:18:55.131Z,88.80
2018-12-11T01:21:24.040Z,87.80
2018-12-11T01:23:52.924Z,88.20
2018-12-11T01:26:21.886Z,88.30
2018-12-11T01:28:50.823Z,88.30
2018-12-11T01:31:19.856Z,88.50
2018-12-11T01:33:48.744Z,88.00
2018-12-11T01:36:17.640Z,87.30
2018-12-11T01:38:46.547Z,88.20
2018-12-11T01:41:15.712Z,88.20
2018-12-11T01:43:44.609Z,88.10
2018-12-11T01:46:13.523Z,88.30
2018-12-11T01:48:42.451Z,87.90
2018-12-11T01:51:11.347Z,87.70
2018-12-11T01:53:40.245Z,88.20
2018-12-11T01:56:09.182Z,87.90
2018-12-11T01:58:38.098Z,88.10
2018-12-11T02:01:07.072Z,88.10
2018-12-11T02:03:35.988Z,87.70
2018-12-11T02:06:04.885Z,88.10
2018-12-11T02:08:33.776Z,88.50
2018-12-11T02:11:02.676Z,88.60
2018-12-11T02:13:31.586Z,89.20
2018-12-11T02:16:00.522Z,88.80
2018-12-11T02:18:29.399Z,88.90
2018-12-11T02:20:58.516Z,89.20
2018-12-11T02:23:27.695Z,89.30
2018-12-11T02:25:56.642Z,88.90
2018-12-11T02:28:25.512Z,89.20
2018-12-11T02:30:54.598Z,88.80
2018-12-11T02:33:23.557Z,88.80
2018-12-11T02:35:52.442Z,88.80
2018-12-11T02:38:21.445Z,88.90
2018-12-11T02:40:51.476Z,89.00
2018-12-11T02:43:20.477Z,89.10
2018-12-11T02:45:49.342Z,89.40
2018-12-11T02:48:18.300Z,89.80
2018-12-11T02:50:47.324Z,89.30
2018-12-11T02:53:16.224Z,88.90
2018-12-11T02:55:45.249Z,89.10
2018-12-11T02:58:14.238Z,88.70
2018-12-11T03:00:43.229Z,88.40
2018-12-11T03:03:12.152Z,88.30
2018-12-11T03:05:41.090Z,88.50
2018-12-11T03:08:10.085Z,87.90
2018-12-11T03:10:38.953Z,87.50
2018-12-11T03:13:07.959Z,87.30
2018-12-11T03:15:36.850Z,87.30
2018-12-11T03:18:05.927Z,87.10
2018-12-11T03:20:34.831Z,87.10
2018-12-11T03:23:03.728Z,87.40
2018-12-11T03:25:32.611Z,87.30
2018-12-11T03:28:01.545Z,87.20
2018-12-11T03:30:30.654Z,87.50
2018-12-11T03:32:59.588Z,87.50
2018-12-11T03:35:28.605Z,87.50
2018-12-11T03:37:57.493Z,87.60
2018-12-11T03:40:26.409Z,87.40
2018-12-11T03:42:55.359Z,87.60
2018-12-11T03:45:24.462Z,87.60
2018-12-11T03:47:53.395Z,87.70
2018-12-11T03:50:22.321Z,87.50
2018-12-11T03:52:51.257Z,87.70
2018-12-11T03:55:20.120Z,87.60
2018-12-11T03:57:49.080Z,87.70
2018-12-11T04:00:18.021Z,87.70
2018-12-11T04:02:46.972Z,87.60
2018-12-11T04:05:15.860Z,87.60
2018-12-11T04:07:44.769Z,87.30
2018-12-11T04:10:13.764Z,87.60
2018-12-11T04:12:42.706Z,87.70
2018-12-11T04:15:11.641Z,87.60
2018-12-11T04:17:40.539Z,87.10
2018-12-11T04:20:09.639Z,87.20
2018-12-11T04:22:38.510Z,87.10
2018-12-11T04:25:07.687Z,87.00
2018-12-11T04:27:36.600Z,87.20
2018-12-11T04:30:07.670Z,87.00
2018-12-11T04:32:36.562Z,87.20
2018-12-11T04:35:05.866Z,86.80
2018-12-11T04:37:34.867Z,87.40
2018-12-11T04:40:03.911Z,87.10
2018-12-11T04:42:32.812Z,86.70
2018-12-11T04:45:01.740Z,86.80
2018-12-11T04:47:30.671Z,86.40
2018-12-11T04:49:59.611Z,86.40
2018-12-11T04:52:28.496Z,86.40
2018-12-11T04:54:57.421Z,86.50
2018-12-11T04:57:26.340Z,86.70
2018-12-11T04:59:55.238Z,86.50
2018-12-11T05:02:24.192Z,86.70
2018-12-11T05:04:53.087Z,86.50
2018-12-11T05:07:21.991Z,86.60
2018-12-11T05:09:50.998Z,86.70
2018-12-11T05:12:19.944Z,86.80
2018-12-11T05:14:48.859Z,87.10
2018-12-11T05:17:17.819Z,87.50
2018-12-11T05:19:46.717Z,87.40
2018-12-11T05:22:15.662Z,87.60
2018-12-11T05:24:44.575Z,87.40
2018-12-11T05:27:14.408Z,87.20
2018-12-11T05:30:48.661Z,87.20
2018-12-11T05:33:17.590Z,87.40
2018-12-11T05:35:46.485Z,87.40
2018-12-11T05:38:15.480Z,87.50
2018-12-11T05:40:44.396Z,87.40
2018-12-11T05:43:14.212Z,87.70
2018-12-11T05:45:43.312Z,87.60
2018-12-11T05:48:13.075Z,87.60
2018-12-11T05:50:41.937Z,87.60
2018-12-11T05:53:10.818Z,87.40
2018-12-11T05:55:39.785Z,87.30
2018-12-11T05:58:08.801Z,87.40
2018-12-11T06:00:37.754Z,87.40
2018-12-11T06:03:06.797Z,87.30
2018-12-11T06:05:35.907Z,87.30
2018-12-11T06:08:04.828Z,87.20
2018-12-11T06:10:33.718Z,87.00
2018-12-11T06:13:02.773Z,87.10
2018-12-11T06:15:31.699Z,87.30
2018-12-11T06:18:00.643Z,86.90
2018-12-11T06:20:29.545Z,87.10
2018-12-11T06:22:58.448Z,87.10
2018-12-11T06:25:29.686Z,87.10
2018-12-11T06:27:58.750Z,87.50
2018-12-11T06:30:29.247Z,87.60
2018-12-11T06:32:58.128Z,87.90
2018-12-11T06:35:27.102Z,88.20
2018-12-11T06:37:56.041Z,88.00
2018-12-11T06:40:25.098Z,88.00
2018-12-11T06:42:54.154Z,88.00
2018-12-11T06:45:23.035Z,88.00
2018-12-11T06:47:51.985Z,87.90
2018-12-11T06:50:20.900Z,88.50
2018-12-11T06:52:50.007Z,89.10
2018-12-11T06:55:19.010Z,88.80
2018-12-11T06:57:47.950Z,88.60
2018-12-11T07:00:16.857Z,88.60
2018-12-11T07:02:45.844Z,88.90
2018-12-11T07:05:14.748Z,89.30
2018-12-11T07:07:43.693Z,89.70
2018-12-11T07:10:12.668Z,90.00
2018-12-11T07:12:41.632Z,90.10
2018-12-11T07:15:10.713Z,90.00
2018-12-11T07:17:39.882Z,89.90
2018-12-11T07:20:09.315Z,89.70
2018-12-11T07:22:38.298Z,89.50
2018-12-11T07:25:07.559Z,89.30
2018-12-11T07:27:36.462Z,89.20
2018-12-11T07:30:06.944Z,88.90
2018-12-11T07:32:36.068Z,88.90
2018-12-11T07:35:05.396Z,88.80
2018-12-11T07:37:34.398Z,88.60
2018-12-11T07:40:04.937Z,88.80
2018-12-11T07:42:33.929Z,88.30
2018-12-11T07:45:02.899Z,88.10
2018-12-11T07:47:31.912Z,88.90
2018-12-11T07:50:00.816Z,88.40
2018-12-11T07:52:29.784Z,88.50
2018-12-11T07:54:58.688Z,88.30
2018-12-11T07:57:27.659Z,88.20
2018-12-11T07:59:56.623Z,87.90
2018-12-11T08:02:25.532Z,88.40
2018-12-11T08:04:54.498Z,88.00
2018-12-11T08:07:23.493Z,88.00
2018-12-11T08:09:52.456Z,87.90
2018-12-11T08:12:21.482Z,88.10
2018-12-11T08:14:50.466Z,88.20
2018-12-11T08:17:19.352Z,88.50
2018-12-11T08:19:48.792Z,88.30
2018-12-11T08:22:17.704Z,88.10
2018-12-11T08:24:46.641Z,88.00
2018-12-11T08:27:15.581Z,87.90
2018-12-11T08:29:44.524Z,88.20
2018-12-11T08:32:13.461Z,88.20
2018-12-11T08:34:42.426Z,88.90
2018-12-11T08:37:11.305Z,90.00
2018-12-11T08:39:41.272Z,89.50
2018-12-11T08:42:10.175Z,88.40
2018-12-11T08:44:39.100Z,87.30
2018-12-11T08:47:07.986Z,85.80
2018-12-11T08:49:36.912Z,84.50
2018-12-11T08:52:05.808Z,83.10
2018-12-11T08:54:34.713Z,81.90
2018-12-11T08:57:03.754Z,79.90
2018-12-11T08:59:32.784Z,78.10
2018-12-11T09:02:01.715Z,77.30
2018-12-11T09:04:30.663Z,75.20
2018-12-11T09:06:59.568Z,74.60
2018-12-11T09:09:28.535Z,73.50
2018-12-11T09:11:57.520Z,73.00
2018-12-11T09:14:26.536Z,74.00
2018-12-11T09:16:55.453Z,74.00
2018-12-11T09:19:24.377Z,75.20
2018-12-11T09:21:53.271Z,76.40
2018-12-11T09:24:22.230Z,76.40
2018-12-11T09:26:51.124Z,77.10
2018-12-11T09:29:20.004Z,77.50
2018-12-11T09:31:48.904Z,79.00
2018-12-11T09:34:18.321Z,80.70
2018-12-11T09:36:47.264Z,80.30
2018-12-11T09:39:17.266Z,80.00
2018-12-11T09:41:46.177Z,80.10
2018-12-11T09:44:15.167Z,79.30
2018-12-11T09:46:44.187Z,78.60
2018-12-11T09:49:13.060Z,78.50
2018-12-11T09:51:41.949Z,79.00
2018-12-11T09:54:10.854Z,78.50
2018-12-11T09:56:39.747Z,79.00
2018-12-11T09:59:08.636Z,79.70
2018-12-11T10:01:37.625Z,80.90
2018-12-11T10:04:06.497Z,82.00
2018-12-11T10:06:35.376Z,83.00
2018-12-11T10:09:07.000Z,82.70
2018-12-11T10:11:37.920Z,81.80
2018-12-11T10:14:07.061Z,79.70
2018-12-11T10:16:35.960Z,75.60
2018-12-11T10:24:13.664Z,68.20
2018-12-11T10:31:51.396Z,66.50
2018-12-11T10:34:20.310Z,64.20
2018-12-11T10:36:49.557Z,61.40
2018-12-11T10:39:18.526Z,59.20
2018-12-11T10:41:47.403Z,58.00
2018-12-11T10:44:16.308Z,56.40
2018-12-11T10:46:45.190Z,54.00
2018-12-11T10:49:15.011Z,55.00
2018-12-11T10:51:43.894Z,54.10
2018-12-11T10:54:13.868Z,53.50
2018-12-11T10:56:42.888Z,50.90
2018-12-11T10:59:11.773Z,50.10
2018-12-11T11:01:44.879Z,50.50
2018-12-11T11:04:14.167Z,49.40
2018-12-11T11:06:43.275Z,48.70
2018-12-11T11:09:12.153Z,51.70
2018-12-11T11:11:42.015Z,53.00
2018-12-11T11:14:11.213Z,55.50
2018-12-11T11:16:40.178Z,56.80
2018-12-11T11:19:09.299Z,58.40
2018-12-11T11:21:38.313Z,59.70
2018-12-11T11:24:07.202Z,60.70
2018-12-11T11:26:36.089Z,62.90
2018-12-11T11:29:05.049Z,62.00
2018-12-11T11:31:33.950Z,61.70
2018-12-11T11:34:02.960Z,60.90
2018-12-11T11:36:31.984Z,60.60
2018-12-11T11:39:01.063Z,62.20
2018-12-11T11:41:31.365Z,64.70
2018-12-11T11:44:00.345Z,64.50
2018-12-11T11:46:29.381Z,63.10
2018-12-11T11:48:58.360Z,62.00
2018-12-11T11:51:27.440Z,60.10
2018-12-11T11:53:56.316Z,58.30
2018-12-11T11:56:25.210Z,56.50
2018-12-11T11:58:54.212Z,58.00
2018-12-11T12:01:24.272Z,58.60
2018-12-11T12:03:53.260Z,60.00
2018-12-11T12:06:22.352Z,63.20
2018-12-11T12:08:51.457Z,64.30
2018-12-11T12:11:20.343Z,62.60
2018-12-11T12:13:49.224Z,61.50
2018-12-11T12:16:18.192Z,59.40
2018-12-11T12:18:47.080Z,56.50
2018-12-11T12:21:16.012Z,55.20
2018-12-11T12:23:44.901Z,53.80
2018-12-11T12:26:13.778Z,55.20
2018-12-11T12:28:42.661Z,53.20
2018-12-11T12:31:12.028Z,52.00
2018-12-11T12:33:41.029Z,51.50
2018-12-11T12:36:09.916Z,51.20
2018-12-11T12:38:38.905Z,52.70
2018-12-11T12:41:07.876Z,54.50
2018-12-11T12:43:36.766Z,56.40
2018-12-11T12:46:05.764Z,56.50
2018-12-11T12:48:34.652Z,57.00
2018-12-11T12:51:03.569Z,59.70
2018-12-11T12:53:32.452Z,60.00
2018-12-11T12:56:01.343Z,57.60
2018-12-11T12:58:30.293Z,55.00
2018-12-11T13:00:59.371Z,52.20
2018-12-11T13:03:28.480Z,51.00
2018-12-11T13:05:57.501Z,50.60
2018-12-11T13:08:26.376Z,50.70
2018-12-11T13:10:55.268Z,52.30
2018-12-11T13:13:24.201Z,52.30
2018-12-11T13:15:53.084Z,51.30
2018-12-11T13:18:22.040Z,50.70
2018-12-11T13:20:50.909Z,48.90
2018-12-11T13:23:19.825Z,47.60
2018-12-11T13:25:48.815Z,46.20
2018-12-11T13:28:17.696Z,45.10
2018-12-11T13:30:46.607Z,45.50
2018-12-11T13:33:15.588Z,46.80
2018-12-11T13:35:44.536Z,48.70
2018-12-11T13:38:13.421Z,50.00
2018-12-11T13:40:42.669Z,51.20
2018-12-11T13:43:11.556Z,53.00
2018-12-11T13:45:40.438Z,54.80
2018-12-11T13:48:09.392Z,56.50
2018-12-11T13:50:38.291Z,57.70
2018-12-11T13:53:07.177Z,58.70
2018-12-11T13:55:36.045Z,58.90
2018-12-11T13:58:04.978Z,59.50
2018-12-11T14:00:33.885Z,59.30
2018-12-11T14:03:02.759Z,60.00
2018-12-11T14:05:31.848Z,61.00
2018-12-11T14:08:02.002Z,61.20
2018-12-11T14:10:30.979Z,61.20
2018-12-11T14:12:59.846Z,62.00
2018-12-11T14:15:28.705Z,62.60
2018-12-11T14:17:57.580Z,62.90
2018-12-11T14:20:26.457Z,64.10
2018-12-11T14:22:55.332Z,65.10
2018-12-11T14:25:24.371Z,65.50
2018-12-11T14:27:53.216Z,66.30
2018-12-11T14:30:22.122Z,66.30
2018-12-11T14:32:50.973Z,67.50
2018-12-11T14:35:19.972Z,67.30
2018-12-11T14:37:48.848Z,67.60
2018-12-11T14:40:17.735Z,67.90
2018-12-11T14:42:46.602Z,68.90
2018-12-11T14:45:15.547Z,68.20
2018-12-11T14:47:44.414Z,68.20
2018-12-11T14:50:13.289Z,68.90
2018-12-11T14:52:42.144Z,69.30
2018-12-11T14:55:11.128Z,69.70
2018-12-11T14:57:40.000Z,69.70
2018-12-11T15:00:10.273Z,70.60
2018-12-11T15:02:39.765Z,70.80
2018-12-11T15:05:08.790Z,71.10
2018-12-11T15:07:39.229Z,71.50
2018-12-11T15:10:10.315Z,71.70
2018-12-11T15:12:40.423Z,72.00
2018-12-11T15:15:10.376Z,72.30
2018-12-11T15:17:39.441Z,72.30
2018-12-11T15:20:08.986Z,72.60
2018-12-11T15:22:38.917Z,72.90
2018-12-11T15:25:07.932Z,73.20
2018-12-11T15:27:36.896Z,73.40
2018-12-11T15:30:06.270Z,73.70
2018-12-11T15:32:35.164Z,73.80
2018-12-11T15:35:04.297Z,74.30
2018-12-11T15:37:33.232Z,74.70
2018-12-11T15:40:02.108Z,74.70
2018-12-11T15:42:31.980Z,74.80
2018-12-11T15:45:00.997Z,74.90
2018-12-11T15:47:29.880Z,75.30
2018-12-11T15:49:58.732Z,75.30
2018-12-11T15:52:27.587Z,75.30
2018-12-11T15:54:56.638Z,75.50
2018-12-11T15:57:25.580Z,75.50
2018-12-11T15:59:54.455Z,75.90
2018-12-11T16:02:23.340Z,76.20
2018-12-11T16:04:52.219Z,76.50
2018-12-11T16:07:21.105Z,76.70
2018-12-11T16:09:49.989Z,76.80
2018-12-11T16:12:18.945Z,77.00
2018-12-11T16:14:47.826Z,77.10
2018-12-11T16:17:16.681Z,77.30
2018-12-11T16:19:45.567Z,77.40
2018-12-11T16:22:14.516Z,78.60
2018-12-11T16:24:43.409Z,77.40
2018-12-11T16:27:12.703Z,78.50
2018-12-11T16:29:41.622Z,78.00
2018-12-11T16:32:10.507Z,78.30
2018-12-11T16:34:39.405Z,78.90
2018-12-11T16:37:09.485Z,79.10
2018-12-11T16:39:39.428Z,79.00
2018-12-11T16:42:08.301Z,79.10
2018-12-11T16:44:37.151Z,78.90
2018-12-11T16:47:06.101Z,78.60
2018-12-11T16:49:35.133Z,78.80
2018-12-11T16:52:04.000Z,78.90
2018-12-11T16:54:32.936Z,79.10
2018-12-11T16:57:01.816Z,79.70
2018-12-11T16:59:31.262Z,79.50
2018-12-11T17:02:00.134Z,79.50
2018-12-11T17:04:29.008Z,79.50
2018-12-11T17:06:57.924Z,79.40
2018-12-11T17:09:26.921Z,79.40
2018-12-11T17:11:56.031Z,79.40
2018-12-11T17:14:24.919Z,79.70
2018-12-11T17:16:53.805Z,79.90
2018-12-11T17:19:22.693Z,80.00
2018-12-11T17:21:51.572Z,80.00
2018-12-11T17:24:20.478Z,80.00
2018-12-11T17:26:49.379Z,79.90
2018-12-11T17:29:23.942Z,80.00
2018-12-11T17:31:49.154Z,80.10
2018-12-11T17:34:18.019Z,80.20
2018-12-11T17:36:46.877Z,80.20
2018-12-11T17:39:15.885Z,80.30
2018-12-11T17:41:44.850Z,80.80
2018-12-11T17:44:13.759Z,80.80
2018-12-11T17:46:42.640Z,81.10
2018-12-11T17:49:11.557Z,81.10
2018-12-11T17:51:41.410Z,81.00
2018-12-11T17:54:10.322Z,81.00
2018-12-11T17:56:39.504Z,81.20
2018-12-11T17:59:08.451Z,81.30
2018-12-11T18:01:37.915Z,81.20
2018-12-11T18:04:06.841Z,81.10
2018-12-11T18:06:35.756Z,81.30
2018-12-11T18:09:07.159Z,81.00
2018-12-11T18:11:37.015Z,81.00
2018-12-11T18:14:05.977Z,81.00
2018-12-11T18:16:34.923Z,81.00
2018-12-11T18:19:03.800Z,81.00
2018-12-11T18:21:32.768Z,80.80
2018-12-11T18:24:01.620Z,81.00
2018-12-11T18:26:30.468Z,80.90
2018-12-11T18:28:59.361Z,81.10
2018-12-11T18:31:28.282Z,81.10
2018-12-11T18:33:57.251Z,81.20
2018-12-11T18:36:26.903Z,81.10
2018-12-11T18:38:55.964Z,81.00
2018-12-11T18:41:24.963Z,81.20
2018-12-11T18:43:53.916Z,81.40
2018-12-11T18:46:22.904Z,81.70
2018-12-11T18:48:51.857Z,81.70
2018-12-11T18:51:20.721Z,81.40
2018-12-11T18:53:49.671Z,81.40
2018-12-11T18:56:18.558Z,81.50
2018-12-11T18:58:47.422Z,81.60
2018-12-11T19:01:16.289Z,81.80
2018-12-11T19:03:49.211Z,82.00
2018-12-11T19:06:16.004Z,82.90
2018-12-11T19:08:44.887Z,82.30
2018-12-11T19:11:13.768Z,82.50
2018-12-11T19:13:44.621Z,82.20
2018-12-11T19:16:13.638Z,82.30
2018-12-11T19:18:42.506Z,82.30
2018-12-11T19:21:10.658Z,82.40
2018-12-11T19:23:42.359Z,82.60
2018-12-11T19:26:10.759Z,82.70
2018-12-11T19:28:38.874Z,82.60
2018-12-11T19:31:06.951Z,82.60
2018-12-11T19:33:36.983Z,82.60
2018-12-11T19:36:05.180Z,82.80
2018-12-11T19:38:35.244Z,82.90
2018-12-11T19:41:03.324Z,83.70
2018-12-11T19:43:31.424Z,83.20
2018-12-11T19:45:59.659Z,83.20
2018-12-11T19:48:27.729Z,83.40
2018-12-11T19:50:55.804Z,83.60
2018-12-11T19:53:23.879Z,83.70
2018-12-11T19:55:51.949Z,83.80
2018-12-11T19:58:20.032Z,84.10
2018-12-11T20:00:48.129Z,84.50
2018-12-11T20:03:16.226Z,84.60
2018-12-11T20:05:44.264Z,84.70
2018-12-11T20:08:12.353Z,84.70
2018-12-11T20:10:40.425Z,84.80
2018-12-11T20:13:09.367Z,85.10
2018-12-11T20:15:37.470Z,85.20
2018-12-11T20:18:05.540Z,85.20
2018-12-11T20:20:33.727Z,85.30
2018-12-11T20:23:01.894Z,85.40
2018-12-11T20:25:30.143Z,85.00
2018-12-11T20:27:58.293Z,85.10
2018-12-11T20:30:26.400Z,84.90
2018-12-11T20:32:54.471Z,84.70
2018-12-11T20:35:22.547Z,85.00
2018-12-11T20:37:50.632Z,85.00
2018-12-11T20:40:18.708Z,85.20
2018-12-11T20:42:46.787Z,85.30
2018-12-11T20:45:15.636Z,85.40
2018-12-11T20:47:43.722Z,85.20
2018-12-11T20:50:11.767Z,85.10
2018-12-11T20:52:39.916Z,85.00
2018-12-11T20:55:07.986Z,85.00
2018-12-11T20:57:36.088Z,85.00
2018-12-11T21:00:04.746Z,85.10
2018-12-11T21:02:33.881Z,85.10
2018-12-11T21:05:01.996Z,85.10
2018-12-11T21:07:30.167Z,85.20
2018-12-11T21:09:58.245Z,85.40
2018-12-11T21:12:26.343Z,86.30
2018-12-11T21:14:54.495Z,85.80
2018-12-11T21:17:22.705Z,86.00
2018-12-11T21:19:51.115Z,86.20
2018-12-11T21:22:19.202Z,86.00
2018-12-11T21:24:47.381Z,85.80
2018-12-11T21:27:15.572Z,85.80
2018-12-11T21:29:43.640Z,86.00
2018-12-11T21:32:11.705Z,85.50
2018-12-11T21:34:39.759Z,85.80
2018-12-11T21:37:07.856Z,85.80
2018-12-11T21:39:35.975Z,85.70
2018-12-11T21:42:04.043Z,85.70
2018-12-11T21:44:32.111Z,85.70
2018-12-11T21:47:00.248Z,85.60
2018-12-11T21:49:28.343Z,86.20
2018-12-11T21:51:56.524Z,86.10
2018-12-11T21:54:24.584Z,86.40
2018-12-11T21:56:52.652Z,86.00
2018-12-11T21:59:20.736Z,85.90
2018-12-11T22:01:48.799Z,86.00
2018-12-11T22:04:16.876Z,86.30
2018-12-11T22:06:44.983Z,86.20
2018-12-11T22:09:13.053Z,86.30
2018-12-11T22:11:41.175Z,86.30
2018-12-11T22:14:09.273Z,86.30
2018-12-11T22:16:37.356Z,86.10
2018-12-11T22:19:05.429Z,86.10
2018-12-11T22:21:33.477Z,86.30
2018-12-11T22:24:01.552Z,86.30
2018-12-11T22:26:29.618Z,86.30
2018-12-11T22:28:57.684Z,86.30
2018-12-11T22:31:25.751Z,86.30
2018-12-11T22:33:53.818Z,86.60
2018-12-11T22:36:21.879Z,86.40
2018-12-11T22:38:49.963Z,86.40
2018-12-11T22:41:18.043Z,86.40
2018-12-11T22:43:46.135Z,86.80
2018-12-11T22:46:14.400Z,87.00
2018-12-11T22:48:42.635Z,87.00
2018-12-11T22:51:10.719Z,87.10
2018-12-11T22:53:38.811Z,87.00
2018-12-11T22:56:06.886Z,87.00
2018-12-11T22:58:34.983Z,87.20
2018-12-11T23:01:03.162Z,87.30
2018-12-11T23:03:33.211Z,87.20
2018-12-11T23:06:01.324Z,87.30
2018-12-11T23:08:29.387Z,87.20
2018-12-11T23:10:57.545Z,87.20
2018-12-11T23:13:25.762Z,87.20
2018-12-11T23:15:53.956Z,87.20
2018-12-11T23:18:22.157Z,87.20
2018-12-11T23:20:50.235Z,87.80
2018-12-11T23:23:18.303Z,87.20
2018-12-11T23:25:46.461Z,87.20
2018-12-11T23:28:14.525Z,87.10
2018-12-11T23:30:42.681Z,87.30
2018-12-11T23:33:10.840Z,87.30
2018-12-11T23:35:38.907Z,87.40
2018-12-11T23:38:06.967Z,87.50
2018-12-11T23:40:35.112Z,87.40
2018-12-11T23:43:03.171Z,87.30
2018-12-11T23:45:31.487Z,87.60
2018-12-11T23:47:59.527Z,87.50
2018-12-11T23:50:27.744Z,87.50
2018-12-11T23:52:55.800Z,87.50
2018-12-11T23:55:23.883Z,87.60
2018-12-11T23:57:51.944Z,87.60
